Glen Hope, PA (16645)

12:50 PM EDT en Octubre 23, 2017 (GMT -0400)
The Garden | | Change Station

Alt 1578 ft 40.79 °N, 78.37 °W | Updated 13 seconds ago

Nublado
Nublado
64.8 ° F
Sensación térmica 64.8 ° F
N
7.2
Viento Variable Viento desde Sur
Gusts 9.8 mph

Hoy
Alta -- | Baja -- ° F
--% Posibilidad de precipitaciones
Ayer
Alta -- | Baja -- ° F
Precip. -- pul
Presión 30.10 pul
Visibilidad 10.0 Millas
Nubes Muy nublado 2200 ft
Nublado 2800 ft
Punto de rocío 34 ° F
Humedad 32%
Precipitaciones 0.00 pul
Espesor de la nieve No disponible.
7:34 AM 6:21 PM
Creciente, 14% visible
METAR KFIG 231554Z AUTO 17008KT 130V200 10SM BKN022 OVC028 18/13 A3011 RMK AO2 SLP192 T01780133
Presión 30.10 pul
Visibilidad 10.0 Millas
Nubes Muy nublado 2200 ft
Nublado 2800 ft
Punto de rocío 34 ° F
Humedad 32%
Precipitaciones 0.00 pul
Espesor de la nieve No disponible.
7:34 AM 6:21 PM
Creciente, 14% visible
METAR KFIG 231554Z AUTO 17008KT 130V200 10SM BKN022 OVC028 18/13 A3011 RMK AO2 SLP192 T01780133

Get Severe Weather Alerts

Thanks for signing up!

Be on the lookout for a verification email in your inbox.

You'll start receiving the daily forecast at 6 AM.

×

10-Day Weather Forecast

Almanac

Astronomía

Oct. 23, 2017 Salida Puesta
Hora real
Crepúsculo civil
Crepúsculo náutico
Crepúsculo astronómico
Luna
Horas de luz
Horas de luz
Tomorrow will be .
, % of the Moon is Illuminated

Extremos de hoy

Máximos del estado Bajos del estado

Community

WunderPhotos

Category 6

Welcome to Category 6. This is the collective home for Weather Underground's featured writeups by Dr. Jeff Masters (right), Bob Henson (left), Chris Burt, and other regular contributors.

Nearby

Calidad del aire

  Calidad del aire Índice AQ Contaminante
Not available.

Grosos de nieve

Estación Profundido Altura

Actividad de terremotos

Ciudad Distance Mag. Tiempo y dato
Magnitud mínima muestra es 2,5.

Temperaturas de aguas costeras

Lugar Temperatura

Stations

Estaciones meteorológicas cercanas

Ubicación de la estación Temp. Vientos helados Punto de rocío Humedad Viento Precip. Alt Actualizado Tipo
                   

Watches & Warnings

There are currently no watches in effect.